Weather at Al Hamra Auxiliary Airport

Public forecast

Using degrees Celsius for public forecast. Weather courtesy of forecast.io.

Closest aviation weather report (METAR) to Al Hamra Auxiliary Airport

Closest report is Hamad International Airport, 85.8 nm (158.9 km) NNW.

2023/02/03 09:00 (retrieved 1 hour ago)

OTHH 030900Z AUTO 35018KT CAVOK 23/11 Q1019 NOSIG

Closest aviation forecast (TAF) to Al Hamra Auxiliary Airport

Closest forecast is Hamad International Airport, 85.8 nm (158.9 km) NNW.

2023/02/03 06:00 (retrieved 4 hours ago)

TAF OTHH 030500Z 0306/0412 34012KT 7000 NSC TEMPO 0308/0316 35015G25KT 5000 BLDU TEMPO 04010405 4900 HZ